createdAt,value
2022-12-01T00:02:04.801Z,97628.88
2022-12-01T00:07:06.609Z,97628.44
2022-12-01T00:12:08.402Z,97623.66
2022-12-01T00:17:10.138Z,97625.31
2022-12-01T00:22:11.993Z,97621.38
2022-12-01T00:27:13.831Z,97618.63
2022-12-01T00:32:15.730Z,97615.69
2022-12-01T00:37:17.565Z,97616.91
2022-12-01T00:42:20.780Z,97618.22
2022-12-01T00:47:22.731Z,97623.69
2022-12-01T00:52:24.391Z,97638.56
2022-12-01T00:57:26.064Z,97636.91
2022-12-01T01:02:28.739Z,97635.91
2022-12-01T01:07:30.764Z,97631.34
2022-12-01T01:12:32.655Z,97637.81
2022-12-01T01:17:34.736Z,97633.63
2022-12-01T01:22:36.446Z,97630.53
2022-12-01T01:27:38.105Z,97624.75
2022-12-01T01:32:40.387Z,97629.31
2022-12-01T01:37:42.146Z,97627.59
2022-12-01T01:42:43.961Z,97623.03
2022-12-01T01:47:48.551Z,97624.25
2022-12-01T01:52:59.127Z,97630.47
2022-12-01T01:58:04.940Z,97631.69
2022-12-01T02:03:09.843Z,97625.81
2022-12-01T02:08:12.432Z,97634.09
2022-12-01T02:13:34.447Z,97621.91
2022-12-01T02:18:42.189Z,97613.41
2022-12-01T02:24:14.798Z,97605.56
2022-12-01T02:29:42.930Z,97589.81
2022-12-01T02:34:48.158Z,97603.53
2022-12-01T02:40:02.019Z,97604.25
2022-12-01T02:45:10.252Z,97595.03
2022-12-01T02:50:13.336Z,97594.38
2022-12-01T02:55:15.003Z,97599.38
2022-12-01T03:00:17.981Z,97601.56
2022-12-01T03:05:50.637Z,97594.44
2022-12-01T03:11:00.072Z,97595.34
2022-12-01T03:16:07.349Z,97598.75
2022-12-01T03:21:30.257Z,97591.44
2022-12-01T03:26:36.248Z,97585.81
2022-12-01T03:31:45.674Z,97590.38
2022-12-01T03:36:52.640Z,97586.53
2022-12-01T03:42:05.449Z,97582.94
2022-12-01T03:47:12.404Z,97586.25
2022-12-01T03:52:31.616Z,97589.34
2022-12-01T03:57:46.765Z,97580.22
2022-12-01T04:02:48.945Z,97590.00
2022-12-01T04:07:50.907Z,97591.44
2022-12-01T04:12:58.838Z,97594.78
2022-12-01T04:18:00.544Z,97590.41
2022-12-01T04:23:02.204Z,97590.19
2022-12-01T04:28:04.067Z,97593.72
2022-12-01T04:33:05.676Z,97589.03
2022-12-01T04:38:07.483Z,97583.25
2022-12-01T04:43:09.183Z,97585.41
2022-12-01T04:48:11.074Z,97591.66
2022-12-01T04:53:12.719Z,97586.41
2022-12-01T04:58:14.907Z,97581.16
2022-12-01T05:03:16.702Z,97590.78
2022-12-01T05:08:18.358Z,97585.81
2022-12-01T05:13:20.107Z,97594.19
2022-12-01T05:18:22.199Z,97598.56
2022-12-01T05:23:29.648Z,97592.47
2022-12-01T05:28:31.588Z,97601.63
2022-12-01T05:33:33.263Z,97597.53
2022-12-01T05:38:34.942Z,97593.56
2022-12-01T05:43:36.752Z,97595.91
2022-12-01T05:48:38.435Z,97592.63
2022-12-01T05:53:40.374Z,97598.44
2022-12-01T05:58:42.081Z,97604.91
2022-12-01T06:03:43.828Z,97596.38
2022-12-01T06:08:45.807Z,97606.59
2022-12-01T06:13:47.480Z,97608.38
2022-12-01T06:18:50.219Z,97605.84
2022-12-01T06:23:51.998Z,97603.72
2022-12-01T06:28:53.804Z,97606.81
2022-12-01T06:33:55.498Z,97614.50
2022-12-01T06:38:57.185Z,97617.16
2022-12-01T06:43:58.896Z,97619.34
2022-12-01T06:49:00.621Z,97617.34
2022-12-01T06:54:05.606Z,97609.28
2022-12-01T06:59:07.792Z,97623.53
2022-12-01T07:04:10.743Z,97620.69
2022-12-01T07:09:12.432Z,97625.31
2022-12-01T07:14:24.808Z,97630.72
2022-12-01T07:19:27.228Z,97628.19
2022-12-01T07:24:30.317Z,97632.41
2022-12-01T07:29:32.069Z,97641.41
2022-12-01T07:34:33.984Z,97636.59
2022-12-01T07:39:35.707Z,97643.84
2022-12-01T07:44:37.580Z,97638.69
2022-12-01T07:49:39.423Z,97646.63
2022-12-01T07:54:41.090Z,97643.06
2022-12-01T07:59:42.812Z,97649.53
2022-12-01T08:04:44.575Z,97647.88
2022-12-01T08:09:46.576Z,97641.00
2022-12-01T08:14:48.475Z,97651.63
2022-12-01T08:19:50.579Z,97648.00
2022-12-01T08:24:52.465Z,97651.97
2022-12-01T08:29:54.303Z,97647.00
2022-12-01T08:34:56.053Z,97651.97
2022-12-01T08:39:57.716Z,97655.75
2022-12-01T08:44:59.430Z,97649.88
2022-12-01T08:50:01.452Z,97651.03
2022-12-01T08:55:04.705Z,97646.13
2022-12-01T09:00:07.683Z,97650.94
2022-12-01T09:05:10.079Z,97657.91
2022-12-01T09:10:11.861Z,97665.25
2022-12-01T09:15:14.988Z,97668.16
2022-12-01T09:20:16.833Z,97658.97
2022-12-01T09:25:18.645Z,97667.63
2022-12-01T09:30:20.420Z,97656.28
2022-12-01T09:35:23.615Z,97654.94
2022-12-01T09:40:32.219Z,97655.63
2022-12-01T09:45:39.746Z,97659.94
2022-12-01T09:50:41.410Z,97657.44
2022-12-01T09:55:44.129Z,97650.69
2022-12-01T10:00:49.137Z,97647.75
2022-12-01T10:11:31.183Z,97632.81
2022-12-01T10:16:47.644Z,97631.13
2022-12-01T10:22:13.667Z,97627.03
2022-12-01T10:27:57.517Z,97615.41
2022-12-01T10:33:17.655Z,97618.53
2022-12-01T10:38:30.635Z,97616.66
2022-12-01T10:43:44.552Z,97611.66
2022-12-01T10:49:14.281Z,97612.47
2022-12-01T10:54:16.722Z,97607.44
2022-12-01T10:59:26.793Z,97609.50
2022-12-01T11:04:34.994Z,97600.78
2022-12-01T11:09:36.663Z,97599.53
2022-12-01T11:14:47.634Z,97593.53
2022-12-01T11:19:49.786Z,97586.38
2022-12-01T11:24:54.833Z,97591.06
2022-12-01T11:30:02.772Z,97585.09
2022-12-01T11:35:18.461Z,97579.97
2022-12-01T11:40:33.561Z,97579.34
2022-12-01T11:45:40.312Z,97578.63
2022-12-01T11:50:43.837Z,97571.22
2022-12-01T11:55:45.491Z,97570.75
2022-12-01T12:00:54.393Z,97570.06
2022-12-01T12:06:32.354Z,97573.16
2022-12-01T12:11:52.752Z,97569.63
2022-12-01T12:17:14.628Z,97565.03
2022-12-01T12:22:37.295Z,97558.97
2022-12-01T12:27:55.993Z,97556.88
2022-12-01T12:33:42.104Z,97565.38
2022-12-01T12:38:59.726Z,97565.03
2022-12-01T12:44:14.301Z,97553.38
2022-12-01T12:49:30.899Z,97558.09
2022-12-01T12:54:32.526Z,97559.28
2022-12-01T12:59:38.229Z,97553.16
2022-12-01T13:04:45.313Z,97557.31
2022-12-01T13:09:55.512Z,97553.78
2022-12-01T13:15:16.024Z,97553.78
2022-12-01T13:20:22.945Z,97555.41
2022-12-01T13:25:33.360Z,97554.63
2022-12-01T13:30:35.430Z,97562.31
2022-12-01T13:35:38.626Z,97550.38
2022-12-01T13:40:40.582Z,97553.69
2022-12-01T13:45:42.590Z,97548.25
2022-12-01T13:50:45.939Z,97547.41
2022-12-01T13:56:17.197Z,97541.97
2022-12-01T14:01:22.518Z,97538.09
2022-12-01T14:06:30.648Z,97545.84
2022-12-01T14:11:34.699Z,97544.66
2022-12-01T14:16:50.169Z,97548.41
2022-12-01T14:21:52.282Z,97541.41
2022-12-01T14:26:54.813Z,97544.31
2022-12-01T14:32:02.625Z,97553.13
2022-12-01T14:37:13.330Z,97547.91
2022-12-01T14:42:50.889Z,97539.78
2022-12-01T14:48:00.735Z,97543.13
2022-12-01T14:53:19.012Z,97546.31
2022-12-01T14:58:25.592Z,97547.97
2022-12-01T15:03:34.632Z,97548.78
2022-12-01T15:08:49.425Z,97545.69
2022-12-01T15:13:59.925Z,97541.56
2022-12-01T15:19:01.591Z,97547.59
2022-12-01T15:24:22.080Z,97542.41
2022-12-01T15:29:24.993Z,97551.13
2022-12-01T15:34:33.890Z,97548.19
2022-12-01T15:39:39.409Z,97545.25
2022-12-01T15:44:41.102Z,97543.59
2022-12-01T15:49:49.395Z,97547.84
2022-12-01T15:54:51.790Z,97538.63
2022-12-01T15:59:56.768Z,97547.03
2022-12-01T16:05:26.176Z,97537.78
2022-12-01T16:10:35.165Z,97541.34
2022-12-01T16:15:43.904Z,97536.50
2022-12-01T16:20:45.835Z,97533.34
2022-12-01T16:25:48.516Z,97540.41
2022-12-01T16:30:51.472Z,97541.84
2022-12-01T16:35:53.946Z,97542.19
2022-12-01T16:40:58.806Z,97544.66
2022-12-01T16:46:03.588Z,97537.94
2022-12-01T16:51:07.616Z,97543.75
2022-12-01T16:56:13.021Z,97544.19
2022-12-01T17:01:14.727Z,97551.91
2022-12-01T17:06:19.036Z,97543.75
2022-12-01T17:11:20.718Z,97542.06
2022-12-01T17:16:22.432Z,97545.25
2022-12-01T17:21:24.133Z,97544.66
2022-12-01T17:26:25.789Z,97540.19
2022-12-01T17:31:27.825Z,97539.34
2022-12-01T17:36:29.586Z,97543.81
2022-12-01T17:41:35.518Z,97543.91
2022-12-01T17:46:38.502Z,97541.59
2022-12-01T17:51:40.986Z,97554.38
2022-12-01T17:56:43.010Z,97555.06
2022-12-01T18:01:45.281Z,97561.53
2022-12-01T18:06:53.586Z,97563.53
2022-12-01T18:11:56.371Z,97570.47
2022-12-01T18:16:58.328Z,97566.06
2022-12-01T18:22:00.129Z,97565.31
2022-12-01T18:27:01.866Z,97572.84
2022-12-01T18:32:03.834Z,97570.13
2022-12-01T18:37:05.990Z,97567.75
2022-12-01T18:42:07.808Z,97571.66
2022-12-01T18:47:09.742Z,97569.63
2022-12-01T18:52:11.577Z,97568.66
2022-12-01T18:57:14.565Z,97573.88
2022-12-01T19:02:16.711Z,97570.16
2022-12-01T19:07:18.928Z,97565.50
2022-12-01T19:12:20.843Z,97564.19
2022-12-01T19:17:22.739Z,97569.47
2022-12-01T19:22:25.145Z,97557.94
2022-12-01T19:27:30.307Z,97562.91
2022-12-01T19:32:32.936Z,97560.53
2022-12-01T19:37:34.650Z,97553.97
2022-12-01T19:42:36.394Z,97556.44
2022-12-01T19:47:39.312Z,97559.28
2022-12-01T19:52:41.489Z,97551.75
2022-12-01T19:57:44.761Z,97551.53
2022-12-01T20:02:46.797Z,97550.63
2022-12-01T20:07:49.228Z,97557.47
2022-12-01T20:12:51.101Z,97563.06
2022-12-01T20:17:53.897Z,97560.34
2022-12-01T20:22:55.529Z,97564.47
2022-12-01T20:27:57.219Z,97567.44
2022-12-01T20:32:58.919Z,97567.44
2022-12-01T20:38:00.620Z,97550.66
2022-12-01T20:43:02.483Z,97555.19
2022-12-01T20:48:04.460Z,97555.16
2022-12-01T20:53:06.520Z,97550.56
2022-12-01T20:58:11.560Z,97551.91
2022-12-01T21:03:13.518Z,97555.28
2022-12-01T21:08:15.244Z,97562.00
2022-12-01T21:13:39.071Z,97555.38
2022-12-01T21:18:55.326Z,97564.34
2022-12-01T21:24:18.601Z,97560.81
2022-12-01T21:29:27.354Z,97557.63
2022-12-01T21:34:29.233Z,97557.63
2022-12-01T21:39:31.216Z,97562.09
2022-12-01T21:44:37.175Z,97562.91
2022-12-01T21:49:39.700Z,97557.03
2022-12-01T21:54:41.488Z,97551.75
2022-12-01T21:59:43.196Z,97555.06
2022-12-01T22:04:45.245Z,97552.94
2022-12-01T22:09:47.798Z,97539.34
2022-12-01T22:14:50.009Z,97540.28
2022-12-01T22:19:56.865Z,97536.97
2022-12-01T22:25:00.674Z,97537.44
2022-12-01T22:30:18.334Z,97536.97
2022-12-01T22:35:25.115Z,97532.00
2022-12-01T22:40:36.181Z,97525.34
2022-12-01T22:45:38.601Z,97522.50
2022-12-01T22:50:40.636Z,97513.53
2022-12-01T22:55:42.619Z,97522.50
2022-12-01T23:00:44.311Z,97513.13
2022-12-01T23:05:46.683Z,97508.78
2022-12-01T23:10:48.428Z,97505.44
2022-12-01T23:15:53.534Z,97507.13
2022-12-01T23:20:57.839Z,97506.69
2022-12-01T23:26:02.254Z,97501.25
2022-12-01T23:31:04.247Z,97494.28
2022-12-01T23:36:14.664Z,97485.69
2022-12-01T23:41:25.653Z,97487.09
2022-12-01T23:46:28.470Z,97476.13
2022-12-01T23:51:37.064Z,97474.31
2022-12-01T23:56:38.918Z,97469.59
